createdAt,value
2019-04-21T00:00:20.381Z,6.63
2019-04-21T00:02:50.169Z,6.47
2019-04-21T00:05:38.530Z,6.83
2019-04-21T00:08:16.616Z,6.50
2019-04-21T00:10:41.885Z,6.43
2019-04-21T00:13:02.697Z,6.30
2019-04-21T00:18:03.923Z,7.17
2019-04-21T00:20:40.930Z,7.30
2019-04-21T00:23:18.098Z,7.83
2019-04-21T00:25:52.829Z,7.67
2019-04-21T00:28:39.102Z,7.40
2019-04-21T00:31:00.594Z,6.53
2019-04-21T00:33:20.735Z,6.97
2019-04-21T00:35:52.605Z,6.30
2019-04-21T00:38:42.701Z,7.30
2019-04-21T00:41:05.541Z,6.80
2019-04-21T00:43:28.010Z,6.40
2019-04-21T00:45:58.871Z,6.77
2019-04-21T00:48:34.434Z,6.50
2019-04-21T00:53:51.931Z,6.67
2019-04-21T00:56:17.693Z,6.87
2019-04-21T00:58:51.424Z,6.50
2019-04-21T01:01:15.021Z,6.70
2019-04-21T01:03:45.716Z,7.33
2019-04-21T01:06:20.819Z,8.13
2019-04-21T01:08:42.787Z,8.03
2019-04-21T01:11:17.916Z,7.00
2019-04-21T01:13:53.366Z,9.03
2019-04-21T01:16:25.685Z,7.83
2019-04-21T01:18:51.852Z,7.97
2019-04-21T01:20:59.354Z,7.10
2019-04-21T01:23:29.366Z,7.00
2019-04-21T01:26:12.169Z,6.77
2019-04-21T01:28:47.785Z,6.20
2019-04-21T01:31:17.536Z,6.57
2019-04-21T01:33:50.734Z,6.30
2019-04-21T01:36:21.091Z,5.90
2019-04-21T01:38:56.004Z,6.13
2019-04-21T01:41:29.335Z,6.70
2019-04-21T01:43:53.512Z,6.70
2019-04-21T01:46:19.433Z,6.27
2019-04-21T01:48:50.479Z,6.90
2019-04-21T01:51:20.944Z,7.00
2019-04-21T01:54:09.347Z,6.93
2019-04-21T01:56:40.490Z,7.10
2019-04-21T01:59:00.874Z,8.27
2019-04-21T02:01:39.215Z,8.10
2019-04-21T02:04:14.018Z,7.50
2019-04-21T02:06:55.368Z,6.90
2019-04-21T02:09:15.489Z,6.27
2019-04-21T02:11:55.107Z,6.70
2019-04-21T02:14:31.987Z,6.37
2019-04-21T02:16:54.039Z,6.90
2019-04-21T02:19:18.293Z,7.30
2019-04-21T02:21:47.469Z,7.00
2019-04-21T02:24:31.239Z,7.40
2019-04-21T02:26:56.154Z,6.37
2019-04-21T02:29:27.465Z,7.33
2019-04-21T02:37:27.198Z,7.67
2019-04-21T02:39:40.769Z,7.23
2019-04-21T02:44:43.362Z,7.80
2019-04-21T02:47:07.041Z,8.63
2019-04-21T02:49:56.591Z,8.07
2019-04-21T02:52:20.155Z,7.97
2019-04-21T02:57:22.653Z,9.77
2019-04-21T02:59:50.067Z,9.20
2019-04-21T03:02:24.931Z,8.73
2019-04-21T03:05:01.781Z,8.60
2019-04-21T03:07:44.576Z,7.90
2019-04-21T03:10:06.456Z,8.33
2019-04-21T03:12:34.547Z,7.67
2019-04-21T03:15:23.547Z,7.80
2019-04-21T03:17:43.881Z,8.33
2019-04-21T03:20:08.845Z,8.03
2019-04-21T03:22:31.626Z,8.10
2019-04-21T03:25:25.249Z,8.20
2019-04-21T03:27:50.593Z,8.70
2019-04-21T03:35:53.429Z,8.23
2019-04-21T03:37:37.184Z,10.80
2019-04-21T03:42:54.974Z,9.87
2019-04-21T03:45:23.376Z,11.80
2019-04-21T03:47:47.846Z,11.13
2019-04-21T03:50:12.840Z,12.80
2019-04-21T03:52:58.425Z,10.47
2019-04-21T04:00:44.846Z,12.70
2019-04-21T04:03:45.570Z,14.07
2019-04-21T04:13:58.078Z,8.80
2019-04-21T04:16:18.846Z,8.70
2019-04-21T04:21:28.304Z,11.43
2019-04-21T04:24:00.880Z,12.40
2019-04-21T04:26:26.218Z,13.43
2019-04-21T04:28:58.137Z,15.93
2019-04-21T04:31:30.470Z,12.50
2019-04-21T04:34:04.748Z,13.20
2019-04-21T04:39:25.826Z,12.80
2019-04-21T04:54:50.948Z,13.20
2019-04-21T04:57:08.532Z,11.30
2019-04-21T05:02:12.940Z,18.63
2019-04-21T05:09:42.842Z,12.87
2019-04-21T05:12:07.757Z,12.27
2019-04-21T05:14:39.303Z,12.57
2019-04-21T05:17:14.317Z,10.10
2019-04-21T05:19:51.753Z,9.80
2019-04-21T05:22:11.025Z,9.40
2019-04-21T05:24:28.933Z,9.20
2019-04-21T05:26:59.520Z,11.20
2019-04-21T05:29:24.738Z,11.47
2019-04-21T05:32:08.076Z,12.10
2019-04-21T05:34:36.070Z,10.07
2019-04-21T05:37:20.196Z,11.33
2019-04-21T05:39:47.973Z,11.33
2019-04-21T05:42:10.684Z,12.20
2019-04-21T05:45:01.692Z,13.63
2019-04-21T05:49:55.462Z,14.63
2019-04-21T05:52:22.493Z,14.87
2019-04-21T05:55:01.268Z,12.47
2019-04-21T05:57:29.133Z,13.73
2019-04-21T06:00:00.937Z,16.13
2019-04-21T06:02:28.985Z,14.90
2019-04-21T06:05:13.657Z,11.77
2019-04-21T06:12:38.194Z,12.90
2019-04-21T06:15:19.684Z,14.57
2019-04-21T06:17:35.756Z,15.33
2019-04-21T06:20:10.476Z,19.57
2019-04-21T06:22:28.926Z,18.17
2019-04-21T06:25:36.017Z,17.40
2019-04-21T06:27:51.067Z,17.00
2019-04-21T06:30:06.589Z,15.90
2019-04-21T06:35:48.413Z,15.90
2019-04-21T06:38:03.664Z,17.50
2019-04-21T06:40:36.152Z,16.43
2019-04-21T06:43:16.306Z,16.03
2019-04-21T06:45:34.965Z,16.97
2019-04-21T06:48:04.723Z,17.57
2019-04-21T06:50:41.547Z,17.30
2019-04-21T06:53:16.505Z,18.03
2019-04-21T06:55:35.214Z,17.90
2019-04-21T06:58:08.831Z,17.93
2019-04-21T07:00:30.540Z,22.83
2019-04-21T07:03:17.021Z,17.27
2019-04-21T07:05:40.951Z,14.37
2019-04-21T07:08:21.901Z,16.67
2019-04-21T07:10:38.517Z,14.23
2019-04-21T07:13:03.676Z,14.07
2019-04-21T07:15:39.108Z,13.03
2019-04-21T07:18:12.393Z,12.83
2019-04-21T07:20:36.645Z,11.37
2019-04-21T07:23:11.895Z,9.47
2019-04-21T07:25:41.145Z,7.73
2019-04-21T07:28:12.843Z,7.13
2019-04-21T07:30:43.950Z,8.07
2019-04-21T07:33:37.573Z,6.43
2019-04-21T07:35:45.770Z,7.50
2019-04-21T07:38:15.003Z,7.13
2019-04-21T07:40:33.680Z,8.33
2019-04-21T07:43:05.550Z,8.03
2019-04-21T07:45:35.124Z,9.00
2019-04-21T07:48:16.228Z,8.33
2019-04-21T07:51:09.555Z,7.67
2019-04-21T07:53:48.117Z,8.67
2019-04-21T07:55:49.640Z,7.20
2019-04-21T07:58:35.871Z,7.60
2019-04-21T08:01:12.444Z,7.80
2019-04-21T08:03:38.876Z,6.83
2019-04-21T08:06:31.997Z,7.20
2019-04-21T08:08:34.241Z,6.50
2019-04-21T08:11:09.589Z,6.40
2019-04-21T08:13:50.318Z,6.43
2019-04-21T08:16:14.775Z,6.27
2019-04-21T08:18:40.018Z,6.43
2019-04-21T08:21:15.290Z,6.27
2019-04-21T08:57:41.460Z,5.73
2019-04-21T09:00:14.630Z,6.10
2019-04-21T09:03:06.685Z,6.00
2019-04-21T09:05:35.885Z,8.43
2019-04-21T09:08:03.976Z,6.60
2019-04-21T09:10:34.916Z,6.03
2019-04-21T09:13:04.455Z,6.23
2019-04-21T09:15:34.958Z,5.83
2019-04-21T09:18:03.046Z,5.47
2019-04-21T09:23:06.488Z,6.03
2019-04-21T09:25:40.794Z,5.77
2019-04-21T09:28:04.058Z,6.10
2019-04-21T09:30:22.031Z,6.00
2019-04-21T09:32:54.417Z,6.60
2019-04-21T09:35:22.278Z,5.97
2019-04-21T09:38:00.310Z,6.07
2019-04-21T09:40:30.142Z,5.63
2019-04-21T09:42:59.459Z,5.73
2019-04-21T09:45:24.491Z,6.43
2019-04-21T09:48:01.041Z,5.77
2019-04-21T09:50:24.264Z,6.50
2019-04-21T09:52:58.678Z,5.80
2019-04-21T09:55:31.370Z,5.60
2019-04-21T09:57:57.712Z,5.90
2019-04-21T10:00:28.727Z,5.90
2019-04-21T10:03:02.624Z,5.50
2019-04-21T10:05:25.428Z,5.63
2019-04-21T10:07:55.249Z,5.70
2019-04-21T10:10:25.240Z,5.50
2019-04-21T10:12:54.138Z,5.50
2019-04-21T10:15:24.631Z,5.60
2019-04-21T10:17:58.289Z,5.47
2019-04-21T10:20:27.069Z,5.40
2019-04-21T10:22:57.310Z,5.67
2019-04-21T10:25:26.298Z,5.40
2019-04-21T10:27:55.042Z,5.90
2019-04-21T10:30:24.623Z,5.93
2019-04-21T10:32:54.319Z,5.90
2019-04-21T10:35:24.383Z,5.70
2019-04-21T10:38:04.408Z,6.03
2019-04-21T10:40:25.360Z,5.70
2019-04-21T10:42:54.249Z,5.90
2019-04-21T10:45:23.187Z,5.33
2019-04-21T10:47:52.814Z,5.33
2019-04-21T10:50:22.621Z,5.73
2019-04-21T10:53:05.210Z,7.47
2019-04-21T10:55:48.608Z,6.40
2019-04-21T10:58:08.825Z,5.60
2019-04-21T11:00:39.756Z,7.40
2019-04-21T11:03:26.942Z,5.50
2019-04-21T11:05:58.798Z,6.00
2019-04-21T11:08:32.325Z,5.87
2019-04-21T11:10:58.248Z,7.93
2019-04-21T11:13:26.953Z,5.70
2019-04-21T11:15:57.035Z,5.87
2019-04-21T11:18:26.058Z,5.70
2019-04-21T11:20:55.209Z,5.50
2019-04-21T11:23:25.041Z,5.53
2019-04-21T11:25:53.977Z,5.47
2019-04-21T11:28:22.991Z,5.57
2019-04-21T11:30:53.064Z,6.23
2019-04-21T11:33:22.786Z,5.83
2019-04-21T11:35:53.133Z,5.00
2019-04-21T11:38:29.051Z,5.23
2019-04-21T11:40:58.104Z,5.30
2019-04-21T11:43:26.945Z,5.40
2019-04-21T11:45:55.662Z,5.77
2019-04-21T11:48:28.446Z,5.67
2019-04-21T11:50:57.491Z,5.60
2019-04-21T11:53:26.255Z,6.87
2019-04-21T11:55:55.594Z,6.67
2019-04-21T11:58:26.263Z,6.83
2019-04-21T12:01:03.473Z,5.57
2019-04-21T12:03:33.640Z,6.50
2019-04-21T12:06:03.625Z,5.63
2019-04-21T12:08:39.306Z,5.20
2019-04-21T12:11:03.288Z,6.20
2019-04-21T12:13:32.350Z,5.17
2019-04-21T12:16:01.135Z,5.30
2019-04-21T12:18:31.913Z,5.53
2019-04-21T12:21:01.193Z,5.50
2019-04-21T12:23:32.495Z,5.93
2019-04-21T12:26:01.435Z,5.67
2019-04-21T12:28:30.465Z,6.33
2019-04-21T12:31:00.135Z,5.20
2019-04-21T12:33:34.165Z,5.90
2019-04-21T12:36:03.961Z,5.40
2019-04-21T12:38:42.636Z,5.53
2019-04-21T12:41:04.606Z,5.57
2019-04-21T12:43:34.775Z,5.50
2019-04-21T12:46:04.218Z,5.60
2019-04-21T12:48:33.815Z,5.43
2019-04-21T12:51:03.881Z,5.87
2019-04-21T12:53:33.961Z,5.57
2019-04-21T12:56:02.892Z,5.07
2019-04-21T12:58:31.600Z,5.60
2019-04-21T13:01:00.916Z,5.47
2019-04-21T13:03:30.402Z,6.00
2019-04-21T13:05:59.283Z,10.07
2019-04-21T13:08:29.277Z,7.00
2019-04-21T13:10:58.489Z,9.67
2019-04-21T13:13:28.141Z,5.90
2019-04-21T13:15:57.718Z,5.67
2019-04-21T13:18:27.029Z,10.60
2019-04-21T13:20:56.103Z,6.37
2019-04-21T13:23:24.999Z,6.40
2019-04-21T13:25:54.116Z,7.53
2019-04-21T13:28:23.046Z,5.83
2019-04-21T13:30:51.702Z,6.13
2019-04-21T13:33:21.027Z,6.80
2019-04-21T13:35:50.905Z,7.20
2019-04-21T13:38:30.130Z,5.70
2019-04-21T13:41:10.731Z,6.63
2019-04-21T13:43:25.373Z,7.93
2019-04-21T13:45:54.120Z,6.70
2019-04-21T13:48:24.282Z,6.93
2019-04-21T13:50:53.503Z,6.63
2019-04-21T13:53:22.769Z,6.10
2019-04-21T13:55:52.892Z,5.90
2019-04-21T13:58:22.107Z,5.70
2019-04-21T14:00:52.374Z,5.77
2019-04-21T14:03:23.393Z,6.00
2019-04-21T14:05:51.926Z,6.00
2019-04-21T14:08:21.082Z,6.27
2019-04-21T14:10:51.396Z,5.90
2019-04-21T14:13:20.477Z,5.50
2019-04-21T14:15:51.658Z,5.90
2019-04-21T14:18:20.653Z,6.30
2019-04-21T14:20:49.480Z,6.50
2019-04-21T14:23:28.588Z,5.97
2019-04-21T14:25:49.993Z,6.33
2019-04-21T14:28:19.925Z,5.90
2019-04-21T14:30:50.328Z,6.23
2019-04-21T14:33:20.462Z,6.07
2019-04-21T14:35:50.623Z,7.27
2019-04-21T14:38:20.596Z,6.93
2019-04-21T14:40:50.329Z,6.43
2019-04-21T14:43:20.440Z,6.70
2019-04-21T14:45:52.645Z,6.23
2019-04-21T14:48:23.306Z,6.47
2019-04-21T14:51:06.524Z,10.93
2019-04-21T14:53:39.752Z,7.23
2019-04-21T14:56:09.128Z,9.43
2019-04-21T14:58:39.145Z,7.23
2019-04-21T15:01:08.370Z,8.40
2019-04-21T15:03:37.612Z,7.80
2019-04-21T15:06:07.506Z,6.50
2019-04-21T15:08:37.359Z,5.73
2019-04-21T15:11:07.067Z,5.70
2019-04-21T15:13:37.721Z,6.03
2019-04-21T15:16:08.987Z,7.50
2019-04-21T15:18:38.866Z,5.43
2019-04-21T15:21:07.859Z,5.90
2019-04-21T15:23:36.588Z,6.00
2019-04-21T15:26:06.098Z,7.07
2019-04-21T15:28:37.229Z,7.47
2019-04-21T15:31:05.315Z,6.20
2019-04-21T15:33:34.968Z,5.77
2019-04-21T15:36:05.090Z,10.40
2019-04-21T15:38:34.022Z,7.10
2019-04-21T15:41:06.758Z,7.27
2019-04-21T15:43:33.515Z,8.40
2019-04-21T15:46:02.633Z,8.27
2019-04-21T15:48:31.412Z,6.47
2019-04-21T15:51:03.684Z,7.67
2019-04-21T15:53:33.880Z,10.27
2019-04-21T15:56:08.707Z,7.13
2019-04-21T15:58:46.367Z,7.10
2019-04-21T16:01:30.253Z,7.13
2019-04-21T16:04:00.565Z,6.10
2019-04-21T16:06:29.709Z,6.87
2019-04-21T16:09:00.863Z,6.10
2019-04-21T16:11:28.919Z,6.33
2019-04-21T16:13:57.635Z,7.50
2019-04-21T16:16:28.662Z,7.40
2019-04-21T16:18:58.266Z,7.43
2019-04-21T16:21:27.115Z,7.93
2019-04-21T16:23:56.386Z,9.53
2019-04-21T16:26:26.636Z,12.10
2019-04-21T16:28:55.520Z,13.20
2019-04-21T16:31:24.778Z,12.30
2019-04-21T16:33:54.738Z,16.73
2019-04-21T16:36:23.465Z,15.37
2019-04-21T16:38:53.481Z,20.37
2019-04-21T16:41:24.385Z,19.67
2019-04-21T16:43:53.283Z,17.80
2019-04-21T16:46:23.119Z,16.47
2019-04-21T16:48:52.058Z,18.17
2019-04-21T16:51:22.110Z,32.30
2019-04-21T16:53:52.543Z,35.53
2019-04-21T16:56:29.138Z,24.03
2019-04-21T16:59:00.776Z,24.13
2019-04-21T17:01:31.844Z,19.87
2019-04-21T17:04:00.683Z,19.23
2019-04-21T17:06:31.198Z,16.07
2019-04-21T17:09:00.973Z,13.70
2019-04-21T17:11:34.692Z,14.37
2019-04-21T17:14:00.656Z,14.47
2019-04-21T17:16:58.355Z,12.67
2019-04-21T17:19:12.722Z,16.10
2019-04-21T17:21:31.926Z,15.30
2019-04-21T17:24:02.152Z,17.03
2019-04-21T17:26:31.376Z,25.33
2019-04-21T17:29:02.650Z,20.83
2019-04-21T17:31:31.422Z,25.00
2019-04-21T17:34:09.493Z,22.83
2019-04-21T17:36:30.924Z,26.37
2019-04-21T17:39:00.124Z,21.97
2019-04-21T17:41:36.417Z,19.17
2019-04-21T17:44:00.382Z,18.07
2019-04-21T17:46:38.524Z,16.87
2019-04-21T17:49:01.030Z,18.17
2019-04-21T17:51:31.938Z,23.30
2019-04-21T17:54:13.530Z,23.17
2019-04-21T17:56:59.566Z,21.00
2019-04-21T17:59:43.242Z,27.87
2019-04-21T18:02:05.087Z,37.70
2019-04-21T18:04:42.600Z,41.03
2019-04-21T18:07:02.409Z,38.90
2019-04-21T18:09:44.105Z,12.00
2019-04-21T18:12:07.757Z,7.43
2019-04-21T18:14:20.681Z,7.13
2019-04-21T18:16:51.581Z,6.80
2019-04-21T18:19:26.095Z,6.87
2019-04-21T18:21:56.804Z,7.00
2019-04-21T18:24:38.032Z,6.70
2019-04-21T18:26:57.322Z,6.70
2019-04-21T18:29:25.523Z,6.53
2019-04-21T18:31:55.888Z,6.50
2019-04-21T18:34:34.162Z,11.67
2019-04-21T18:37:05.474Z,17.00
2019-04-21T18:39:52.695Z,17.87
2019-04-21T18:42:31.244Z,10.00
2019-04-21T18:45:20.646Z,10.93
2019-04-21T18:47:31.589Z,14.37
2019-04-21T18:49:54.424Z,14.10
2019-04-21T18:52:42.752Z,12.93
2019-04-21T18:55:09.857Z,17.17
2019-04-21T18:57:35.592Z,15.93
2019-04-21T18:59:57.435Z,14.43
2019-04-21T19:02:26.748Z,11.90
2019-04-21T19:05:05.813Z,10.17
2019-04-21T19:07:49.766Z,10.07
2019-04-21T19:10:22.223Z,10.30
2019-04-21T19:13:15.991Z,9.97
2019-04-21T19:15:15.853Z,10.50
2019-04-21T19:18:14.947Z,10.53
2019-04-21T19:20:20.614Z,7.97
2019-04-21T19:22:47.727Z,6.40
2019-04-21T19:25:38.771Z,6.73
2019-04-21T19:27:48.784Z,6.17
2019-04-21T19:30:30.183Z,5.73
2019-04-21T19:32:46.748Z,5.80
2019-04-21T19:35:05.514Z,5.90
2019-04-21T19:37:40.163Z,5.63
2019-04-21T19:40:16.148Z,6.20
2019-04-21T19:42:45.602Z,5.73
2019-04-21T19:45:25.572Z,5.60
2019-04-21T19:47:56.492Z,5.90
2019-04-21T19:50:30.983Z,6.07
2019-04-21T19:52:48.685Z,5.30
2019-04-21T19:55:11.919Z,6.43
2019-04-21T19:57:41.092Z,6.50
2019-04-21T20:00:12.087Z,6.37
2019-04-21T20:02:40.973Z,6.53
2019-04-21T20:05:16.500Z,6.03
2019-04-21T20:08:01.639Z,5.83
2019-04-21T20:10:44.505Z,8.20
2019-04-21T20:13:06.430Z,8.93
2019-04-21T20:15:36.082Z,7.53
2019-04-21T20:17:58.858Z,7.73
2019-04-21T20:20:13.340Z,7.73
2019-04-21T20:22:46.802Z,8.43
2019-04-21T20:25:17.487Z,8.30
2019-04-21T20:27:52.801Z,15.77
2019-04-21T20:30:34.668Z,9.43
2019-04-21T20:33:05.832Z,9.10
2019-04-21T20:35:48.226Z,10.60
2019-04-21T20:38:02.277Z,9.50
2019-04-21T20:40:28.373Z,9.40
2019-04-21T20:43:08.637Z,11.30
2019-04-21T20:45:40.292Z,11.00
2019-04-21T20:47:53.956Z,12.60
2019-04-21T20:50:33.884Z,10.97
2019-04-21T20:53:06.133Z,13.60
2019-04-21T20:55:30.075Z,13.27
2019-04-21T20:58:02.895Z,16.67
2019-04-21T21:00:50.795Z,14.87
2019-04-21T21:03:12.164Z,10.57
2019-04-21T21:05:37.353Z,9.73
2019-04-21T21:08:16.917Z,13.27
2019-04-21T21:10:38.728Z,13.50
2019-04-21T21:13:21.182Z,11.27
2019-04-21T21:15:50.127Z,11.07
2019-04-21T21:18:26.860Z,11.40
2019-04-21T21:20:44.797Z,10.60
2019-04-21T21:23:07.778Z,8.30
2019-04-21T21:25:50.465Z,7.90
2019-04-21T21:28:09.218Z,7.70
2019-04-21T21:30:38.562Z,7.47
2019-04-21T21:33:18.519Z,8.40
2019-04-21T21:35:41.070Z,8.40
2019-04-21T21:38:21.323Z,8.80
2019-04-21T21:40:45.537Z,8.50
2019-04-21T21:43:02.780Z,9.57
2019-04-21T21:45:39.402Z,12.17
2019-04-21T21:48:20.864Z,9.83
2019-04-21T21:50:43.088Z,12.60
2019-04-21T21:53:08.278Z,12.97
2019-04-21T21:55:35.411Z,15.40
2019-04-21T21:58:05.537Z,17.47
2019-04-21T22:00:37.043Z,18.03
2019-04-21T22:03:15.706Z,18.07
2019-04-21T22:05:46.792Z,17.07
2019-04-21T22:08:06.792Z,17.13
2019-04-21T22:10:36.897Z,15.33
2019-04-21T22:13:09.612Z,14.30
2019-04-21T22:15:37.673Z,12.83
2019-04-21T22:18:25.748Z,11.20
2019-04-21T22:20:56.488Z,12.37
2019-04-21T22:23:13.339Z,13.03
2019-04-21T22:25:41.666Z,13.00
2019-04-21T22:28:09.482Z,14.00
2019-04-21T22:30:43.845Z,13.50
2019-04-21T22:33:12.340Z,13.33
2019-04-21T22:35:46.305Z,12.73
2019-04-21T22:38:24.722Z,12.83
2019-04-21T22:40:50.696Z,12.53
2019-04-21T22:43:24.482Z,12.47
2019-04-21T22:45:41.273Z,12.80
2019-04-21T22:48:15.539Z,12.90
2019-04-21T22:50:42.358Z,13.90
2019-04-21T22:53:13.699Z,12.77
2019-04-21T22:55:42.970Z,12.60
2019-04-21T22:58:15.933Z,12.23
2019-04-21T23:00:46.031Z,11.57
2019-04-21T23:03:19.289Z,10.70
2019-04-21T23:05:46.179Z,10.63
2019-04-21T23:08:15.059Z,10.70
2019-04-21T23:10:49.646Z,10.73
2019-04-21T23:13:19.286Z,10.70
2019-04-21T23:15:51.210Z,11.73
2019-04-21T23:18:30.477Z,11.80
2019-04-21T23:21:03.549Z,10.20
2019-04-21T23:23:39.704Z,10.83
2019-04-21T23:26:11.326Z,11.63
2019-04-21T23:28:40.538Z,11.17
2019-04-21T23:31:06.296Z,10.90
2019-04-21T23:33:20.139Z,9.70
2019-04-21T23:35:49.548Z,9.57
2019-04-21T23:38:27.845Z,10.00
2019-04-21T23:40:55.824Z,10.00
2019-04-21T23:43:24.560Z,9.87
2019-04-21T23:45:51.752Z,9.27
2019-04-21T23:48:32.372Z,9.33
2019-04-21T23:50:58.054Z,8.67
2019-04-21T23:53:21.605Z,8.83
2019-04-21T23:55:50.308Z,8.00
2019-04-21T23:58:25.475Z,8.60
